Valley City, Illinois
Current Conditions -  °F | °C
As of 7:55 AM on Saturday 25 Oct 2014 (Local Time) from KPPQ Reporting Station
Moderate Fog Moderate Fog  
Wind Chill: 14°   Ceiling: 200
Heat Index: 14°   Visibility: 0.25mi
Dew Point: 13°   Wind: 6mph
Humidity: 94%   Direction: 260°W
Pressure: 30.03"   Gusts: NA
Location:  39.7046°N, 90.7176°W
Report Text: KPPQ 251255Z AUTO 26005KT 1/4SM FG VV002 14/13 A3003 RMK AO2 T01410132
Loading
Personal Weather Stations






























Interactive Weather Map
Tropical Storm Tracking
New forecast layout! Learn more

10-Day Weather Forecast

Advertisements
Track Severe Weather on mobile